createdAt,value
2018-04-13T00:00:44.064Z,31.13
2018-04-13T00:05:46.608Z,29.73
2018-04-13T00:10:49.221Z,27.40
2018-04-13T00:15:51.714Z,32.20
2018-04-13T00:20:54.199Z,25.83
2018-04-13T00:25:56.688Z,28.37
2018-04-13T00:30:59.152Z,29.77
2018-04-13T00:36:01.911Z,27.97
2018-04-13T00:41:04.375Z,28.63
2018-04-13T00:46:06.952Z,31.40
2018-04-13T00:51:09.462Z,26.80
2018-04-13T00:56:11.938Z,27.70
2018-04-13T01:01:14.521Z,27.43
2018-04-13T01:06:17.026Z,27.47
2018-04-13T01:11:19.533Z,27.27
2018-04-13T01:16:22.878Z,28.63
2018-04-13T01:21:25.391Z,27.67
2018-04-13T01:26:28.476Z,31.87
2018-04-13T01:31:30.991Z,27.80
2018-04-13T01:36:33.460Z,25.50
2018-04-13T01:41:35.971Z,26.50
2018-04-13T01:46:38.451Z,25.70
2018-04-13T01:51:40.966Z,28.13
2018-04-13T01:56:43.558Z,27.50
2018-04-13T02:01:46.126Z,24.83
2018-04-13T02:06:48.687Z,28.77
2018-04-13T02:11:51.204Z,26.83
2018-04-13T02:16:53.710Z,29.67
2018-04-13T02:21:56.196Z,27.93
2018-04-13T02:26:58.700Z,29.47
2018-04-13T02:32:01.191Z,26.67
2018-04-13T02:37:03.880Z,32.90
2018-04-13T02:42:06.367Z,28.50
2018-04-13T02:47:08.865Z,28.77
2018-04-13T02:52:11.377Z,29.60
2018-04-13T02:57:14.010Z,29.33
2018-04-13T03:02:16.843Z,31.57
2018-04-13T03:07:19.437Z,27.93
2018-04-13T03:12:22.043Z,29.07
2018-04-13T03:17:24.569Z,28.80
2018-04-13T03:22:27.133Z,28.17
2018-04-13T03:27:29.671Z,27.47
2018-04-13T03:32:32.142Z,27.87
2018-04-13T03:37:34.613Z,30.43
2018-04-13T03:42:37.108Z,24.17
2018-04-13T03:52:36.865Z,29.13
2018-04-13T03:57:39.357Z,34.30
2018-04-13T04:02:41.942Z,25.60
2018-04-13T04:07:44.594Z,24.77
2018-04-13T04:12:47.271Z,27.10
2018-04-13T04:17:49.995Z,25.07
2018-04-13T04:23:04.187Z,26.87
2018-04-13T04:28:06.851Z,25.93
2018-04-13T04:33:09.328Z,26.97
2018-04-13T04:38:11.846Z,28.27
2018-04-13T04:43:14.343Z,25.43
2018-04-13T04:48:16.930Z,27.37
2018-04-13T04:53:19.486Z,25.40
2018-04-13T04:58:22.193Z,25.87
2018-04-13T05:03:24.692Z,27.70
2018-04-13T05:08:27.182Z,25.10
2018-04-13T05:13:29.673Z,26.47
2018-04-13T05:18:32.492Z,25.93
2018-04-13T05:23:35.168Z,26.87
2018-04-13T05:28:37.640Z,26.07
2018-04-13T05:33:45.895Z,23.77
2018-04-13T05:38:50.519Z,31.70
2018-04-13T05:43:53.041Z,29.20
2018-04-13T05:48:55.572Z,24.77
2018-04-13T05:53:58.049Z,23.43
2018-04-13T05:59:00.992Z,24.90
2018-04-13T06:04:04.012Z,29.57
2018-04-13T06:09:06.508Z,26.77
2018-04-13T06:14:09.357Z,23.07
2018-04-13T06:19:12.356Z,25.67
2018-04-13T06:24:15.635Z,21.13
2018-04-13T06:29:18.552Z,27.70
2018-04-13T06:34:21.145Z,21.93
2018-04-13T06:39:23.676Z,25.23
2018-04-13T06:44:26.176Z,22.33
2018-04-13T06:49:28.662Z,23.70
2018-04-13T06:54:31.170Z,26.57
2018-04-13T06:59:33.669Z,23.43
2018-04-13T07:04:36.153Z,22.63
2018-04-13T07:09:38.623Z,26.13
2018-04-13T07:14:41.137Z,21.67
2018-04-13T07:19:43.737Z,24.83
2018-04-13T07:24:46.270Z,21.40
2018-04-13T07:29:48.832Z,21.17
2018-04-13T07:34:51.322Z,19.60
2018-04-13T07:39:53.819Z,23.10
2018-04-13T07:44:56.400Z,22.33
2018-04-13T07:49:58.829Z,26.23
2018-04-13T07:55:01.325Z,26.50
2018-04-13T08:00:03.793Z,26.43
2018-04-13T08:05:06.320Z,24.07
2018-04-13T08:10:08.789Z,26.50
2018-04-13T08:15:11.289Z,31.03
2018-04-13T08:20:13.793Z,31.60
2018-04-13T08:25:16.326Z,28.20
2018-04-13T08:30:18.927Z,30.23
2018-04-13T08:35:21.420Z,31.23
2018-04-13T08:40:23.880Z,26.73
2018-04-13T08:45:26.393Z,29.87
2018-04-13T08:50:28.954Z,34.83
2018-04-13T08:55:32.131Z,28.40
2018-04-13T09:00:34.603Z,33.23
2018-04-13T09:05:37.105Z,29.20
2018-04-13T09:10:39.596Z,33.47
2018-04-13T09:15:42.086Z,32.10
2018-04-13T09:20:44.618Z,34.30
2018-04-13T09:25:47.080Z,34.33
2018-04-13T09:30:49.590Z,35.50
2018-04-13T09:35:52.105Z,35.10
2018-04-13T09:40:54.573Z,36.10
2018-04-13T09:45:57.886Z,34.00
2018-04-13T09:51:00.573Z,37.40
2018-04-13T09:56:03.076Z,32.57
2018-04-13T10:01:05.561Z,35.83
2018-04-13T10:06:08.064Z,29.60
2018-04-13T10:11:10.544Z,26.40
2018-04-13T10:16:13.150Z,24.63
2018-04-13T10:21:15.698Z,26.10
2018-04-13T10:26:21.116Z,27.63
2018-04-13T10:31:23.638Z,26.70
2018-04-13T10:36:26.124Z,25.30
2018-04-13T10:41:28.702Z,22.87
2018-04-13T10:46:31.195Z,24.53
2018-04-13T10:51:33.678Z,24.40
2018-04-13T10:56:36.168Z,26.57
2018-04-13T11:01:38.659Z,27.77
2018-04-13T11:06:41.167Z,26.67
2018-04-13T11:11:43.734Z,28.30
2018-04-13T11:16:46.357Z,28.27
2018-04-13T11:21:48.914Z,31.07
2018-04-13T11:26:51.422Z,30.10
2018-04-13T11:31:53.943Z,28.63
2018-04-13T11:36:56.706Z,28.17
2018-04-13T11:41:59.517Z,27.43
2018-04-13T11:47:01.980Z,28.80
2018-04-13T11:52:04.495Z,32.87
2018-04-13T11:57:07.007Z,24.67
2018-04-13T12:02:09.492Z,25.23
2018-04-13T12:07:11.977Z,25.50
2018-04-13T12:12:14.508Z,22.00
2018-04-13T12:17:17.036Z,24.13
2018-04-13T12:22:19.751Z,21.63
2018-04-13T12:27:22.293Z,15.73
2018-04-13T12:32:24.773Z,22.87
2018-04-13T12:37:27.548Z,17.60
2018-04-13T12:42:30.050Z,20.03
2018-04-13T12:47:32.541Z,19.53
2018-04-13T12:52:35.091Z,15.03
2018-04-13T12:57:38.363Z,17.07
2018-04-13T13:02:40.979Z,15.87
2018-04-13T13:07:44.127Z,13.87
2018-04-13T13:12:46.649Z,13.97
2018-04-13T13:17:49.126Z,11.97
2018-04-13T13:22:51.770Z,12.67
2018-04-13T13:27:54.278Z,11.57
2018-04-13T13:32:56.766Z,14.73
2018-04-13T13:37:59.243Z,16.53
2018-04-13T13:43:01.754Z,12.07
2018-04-13T13:48:04.277Z,11.87
2018-04-13T13:53:06.759Z,14.63
2018-04-13T13:58:09.243Z,9.27
2018-04-13T14:03:11.735Z,13.27
2018-04-13T14:08:15.119Z,12.13
2018-04-13T14:13:17.795Z,13.60
2018-04-13T14:18:20.334Z,11.53
2018-04-13T14:23:22.905Z,12.77
2018-04-13T14:28:25.630Z,12.20
2018-04-13T14:33:28.134Z,13.37
2018-04-13T14:38:30.611Z,11.37
2018-04-13T14:43:33.128Z,10.80
2018-04-13T14:48:35.616Z,15.43
2018-04-13T14:53:38.141Z,12.40
2018-04-13T14:58:40.752Z,18.07
2018-04-13T15:03:43.290Z,9.60
2018-04-13T15:08:45.903Z,3.10
2018-04-13T15:13:48.428Z,4.10
2018-04-13T15:18:51.120Z,7.13
2018-04-13T15:23:53.650Z,6.43
2018-04-13T15:28:56.121Z,7.90
2018-04-13T15:33:58.693Z,5.93
2018-04-13T15:39:01.177Z,8.70
2018-04-13T15:44:03.673Z,10.80
2018-04-13T15:49:06.173Z,8.30
2018-04-13T15:54:08.930Z,7.90
2018-04-13T15:59:11.405Z,7.53
2018-04-13T16:04:13.922Z,9.40
2018-04-13T16:09:16.514Z,8.00
2018-04-13T16:14:19.008Z,6.73
2018-04-13T16:19:21.501Z,11.43
2018-04-13T16:24:23.975Z,10.83
2018-04-13T16:29:26.441Z,10.00
2018-04-13T16:34:28.932Z,12.43
2018-04-13T16:39:31.411Z,12.57
2018-04-13T16:44:33.950Z,8.77
2018-04-13T16:49:36.479Z,12.10
2018-04-13T16:54:39.008Z,11.47
2018-04-13T16:59:41.867Z,15.37
2018-04-13T17:04:44.380Z,15.90
2018-04-13T17:09:46.884Z,11.30
2018-04-13T17:14:49.376Z,10.43
2018-04-13T17:19:51.849Z,10.70
2018-04-13T17:24:54.317Z,8.33
2018-04-13T17:29:56.797Z,12.17
2018-04-13T17:34:59.349Z,12.80
2018-04-13T17:40:01.826Z,17.47
2018-04-13T17:45:04.310Z,15.00
2018-04-13T17:50:06.834Z,15.53
2018-04-13T17:55:09.427Z,16.87
2018-04-13T18:00:11.942Z,15.23
2018-04-13T18:05:17.595Z,15.23
2018-04-13T18:10:20.242Z,15.90
2018-04-13T18:15:22.709Z,17.60
2018-04-13T18:20:25.184Z,19.87
2018-04-13T18:25:27.654Z,18.43
2018-04-13T18:30:30.133Z,22.77
2018-04-13T18:35:32.608Z,24.43
2018-04-13T18:40:35.274Z,20.60
2018-04-13T18:45:38.747Z,17.70
2018-04-13T18:50:41.291Z,18.87
2018-04-13T18:55:44.490Z,22.50
2018-04-13T19:00:47.075Z,18.80
2018-04-13T19:05:52.510Z,19.07
2018-04-13T19:10:57.945Z,23.00
2018-04-13T19:16:02.010Z,16.17
2018-04-13T19:21:05.880Z,18.17
2018-04-13T19:26:08.427Z,20.80
2018-04-13T19:31:13.374Z,25.07
2018-04-13T19:36:16.197Z,20.50
2018-04-13T19:41:19.204Z,24.63
2018-04-13T19:46:24.202Z,24.23
2018-04-13T19:51:27.224Z,24.33
2018-04-13T19:56:31.894Z,29.67
2018-04-13T20:01:34.579Z,24.57
2018-04-13T20:06:37.298Z,27.70
2018-04-13T20:11:41.972Z,25.23
2018-04-13T20:16:44.696Z,26.63
2018-04-13T20:21:47.194Z,32.30
2018-04-13T20:26:49.820Z,38.63
2018-04-13T20:31:52.617Z,33.47
2018-04-13T20:36:55.122Z,39.30
2018-04-13T20:41:57.662Z,33.87
2018-04-13T20:47:00.232Z,37.07
2018-04-13T20:52:02.709Z,37.17
2018-04-13T20:57:05.187Z,41.10
2018-04-13T21:02:07.704Z,34.03
2018-04-13T21:07:10.237Z,22.93
2018-04-13T21:12:12.971Z,15.10
2018-04-13T21:17:15.460Z,13.00
2018-04-13T21:22:18.002Z,10.03
2018-04-13T21:27:20.538Z,7.13
2018-04-13T21:32:22.998Z,9.43
2018-04-13T21:37:25.495Z,9.20
2018-04-13T21:42:27.969Z,6.90
2018-04-13T21:47:30.558Z,5.70
2018-04-13T21:52:33.073Z,3.93
2018-04-13T21:57:35.540Z,5.83
2018-04-13T22:02:38.080Z,3.23
2018-04-13T22:07:40.701Z,3.67
2018-04-13T22:12:55.797Z,3.07
2018-04-13T22:17:58.367Z,4.50
2018-04-13T22:23:00.906Z,3.17
2018-04-13T22:28:03.362Z,4.87
2018-04-13T22:33:05.891Z,5.90
2018-04-13T22:38:08.353Z,3.77
2018-04-13T22:43:10.799Z,5.73
2018-04-13T22:48:13.322Z,4.73
2018-04-13T22:53:16.268Z,4.33
2018-04-13T22:58:18.769Z,4.03
2018-04-13T23:03:21.307Z,5.87
2018-04-13T23:08:24.074Z,4.87
2018-04-13T23:13:26.597Z,4.93
2018-04-13T23:18:29.054Z,5.83
2018-04-13T23:23:31.628Z,6.23
2018-04-13T23:28:34.111Z,7.20
2018-04-13T23:33:36.603Z,6.30
2018-04-13T23:38:39.080Z,7.40
2018-04-13T23:43:41.591Z,8.40
2018-04-13T23:48:44.100Z,7.07
2018-04-13T23:53:46.667Z,8.83
2018-04-13T23:58:49.178Z,12.47
